Time;durP1;ratioP1;P1;durP2;ratioP2;P2;SDS_P1;SDS_P2;PMS_P1;PMS_P2;Temp;Humidity;BMP_temperature;BMP_pressure;BME280_temperature;BME280_humidity;BME280_pressure;Samples;Min_cycle;Max_cycle;Signal;HPM_P1;HPM_P2
2023/05/25 06:51:34;;;;;;;;;16.50;13.00;;;;;;;;6356793;22;68520;-74
2023/05/25 06:53:59;;;;;;;;;18.67;15.33;;;;;;;;6369057;22;45421;-75
2023/05/25 06:56:25;;;;;;;;;13.00;11.33;;;;;;;;6371787;22;45285;-75
2023/05/25 06:58:50;;;;;;;;;16.00;13.67;;;;;;;;6342980;22;45355;-73
2023/05/25 07:01:15;;;;;;;;;13.33;11.33;;;;;;;;6371704;22;45223;-74
2023/05/25 07:03:41;;;;;;;;;15.00;15.00;;;;;;;;6371694;22;45182;-75
2023/05/25 07:06:06;;;;;;;;;16.33;13.67;;;;;;;;6371606;22;45207;-74
2023/05/25 07:08:32;;;;;;;;;11.67;7.33;;;;;;;;6374164;22;45171;-74
2023/05/25 07:10:57;;;;;;;;;17.00;11.67;;;;;;;;6375663;22;45356;-74
2023/05/25 07:13:22;;;;;;;;;17.33;11.33;;;;;;;;6376718;22;45464;-74
2023/05/25 07:15:48;;;;;;;;;16.33;13.00;;;;;;;;6375609;22;45439;-73
2023/05/25 07:18:13;;;;;;;;;14.33;12.33;;;;;;;;6376445;22;45206;-74
2023/05/25 07:20:40;;;;;;;;;13.33;12.00;;;;;;;;6372264;22;45302;-74
2023/05/25 07:23:06;;;;;;;;;13.33;9.67;;;;;;;;6372338;22;45511;-75
2023/05/25 07:25:31;;;;;;;;;19.00;11.00;;;;;;;;6372062;22;45281;-74
2023/05/25 07:27:56;;;;;;;;;11.67;11.67;;;;;;;;6372466;22;45282;-74
2023/05/25 07:30:21;;;;;;;;;12.00;12.00;;;;;;;;6343462;22;45250;-73
2023/05/25 07:32:46;;;;;;;;;13.33;10.33;;;;;;;;6372032;22;45191;-74
2023/05/25 07:35:12;;;;;;;;;12.00;9.67;;;;;;;;6371877;22;45309;-75
2023/05/25 07:37:37;;;;;;;;;13.33;9.33;;;;;;;;6372322;22;44675;-74
2023/05/25 07:40:02;;;;;;;;;13.67;9.00;;;;;;;;6371932;22;45561;-73
2023/05/25 07:42:32;;;;;;;;;10.00;9.00;;;;;;;;6372245;22;45223;-73
2023/05/25 07:44:58;;;;;;;;;9.67;9.67;;;;;;;;6371844;22;45253;-73
2023/05/25 07:47:23;;;;;;;;;11.00;9.33;;;;;;;;6372476;22;45272;-73
2023/05/25 07:49:48;;;;;;;;;12.00;10.00;;;;;;;;6371187;22;45280;-73
2023/05/25 07:52:13;;;;;;;;;13.33;9.67;;;;;;;;6376228;22;45218;-71
2023/05/25 07:54:39;;;;;;;;;8.33;8.00;;;;;;;;6375609;22;45246;-76
2023/05/25 07:57:05;;;;;;;;;8.33;7.33;;;;;;;;6374809;22;45221;-74
2023/05/25 07:59:30;;;;;;;;;8.00;6.67;;;;;;;;6375115;22;45226;-74
2023/05/25 08:01:56;;;;;;;;;13.67;9.33;;;;;;;;6373596;22;45261;-75
2023/05/25 08:04:21;;;;;;;;;9.00;9.00;;;;;;;;6371872;22;45587;-72
2023/05/25 08:06:46;;;;;;;;;12.33;10.00;;;;;;;;6371734;22;45247;-76
2023/05/25 08:09:12;;;;;;;;;14.33;10.00;;;;;;;;6372415;22;45171;-76
2023/05/25 08:11:38;;;;;;;;;9.33;6.67;;;;;;;;6370931;22;45388;-75
2023/05/25 08:14:04;;;;;;;;;6.00;6.00;;;;;;;;6371922;22;46002;-74
2023/05/25 08:16:29;;;;;;;;;3.67;3.67;;;;;;;;6371903;22;45206;-75
2023/05/25 08:18:54;;;;;;;;;8.33;5.67;;;;;;;;6372472;22;45197;-75
2023/05/25 08:21:19;;;;;;;;;5.00;5.00;;;;;;;;6372073;22;45292;-75
2023/05/25 08:23:45;;;;;;;;;8.67;5.33;;;;;;;;6371547;22;45263;-75
2023/05/25 08:26:10;;;;;;;;;6.00;4.67;;;;;;;;6370873;22;45229;-74
2023/05/25 08:28:36;;;;;;;;;7.33;6.00;;;;;;;;6372615;22;45177;-75
2023/05/25 08:31:01;;;;;;;;;7.00;5.00;;;;;;;;6372908;22;45326;-76
2023/05/25 08:33:26;;;;;;;;;6.00;5.33;;;;;;;;6373145;22;45186;-75
2023/05/25 08:35:52;;;;;;;;;4.67;4.67;;;;;;;;6375543;22;45082;-75
2023/05/25 08:38:17;;;;;;;;;11.00;6.00;;;;;;;;6376311;22;45164;-75
2023/05/25 08:40:43;;;;;;;;;7.00;6.00;;;;;;;;6376033;22;45162;-76
2023/05/25 08:43:08;;;;;;;;;6.67;4.33;;;;;;;;6374000;22;45309;-75
2023/05/25 08:45:33;;;;;;;;;5.00;5.00;;;;;;;;6372058;22;45854;-74
2023/05/25 08:48:00;;;;;;;;;6.67;5.67;;;;;;;;6371037;22;45281;-74
2023/05/25 08:50:26;;;;;;;;;6.33;6.00;;;;;;;;6370353;22;45616;-74
2023/05/25 08:52:52;;;;;;;;;5.00;5.00;;;;;;;;6372124;22;46243;-72
2023/05/25 08:55:19;;;;;;;;;7.67;5.00;;;;;;;;6370181;22;45653;-75
2023/05/25 08:58:00;;;;;;;;;5.00;5.00;;;;;;;;6372178;22;45242;-72
2023/05/25 09:00:29;;;;;;;;;4.00;4.00;;;;;;;;6371475;22;45257;-75
2023/05/25 09:03:14;;;;;;;;;8.67;5.67;;;;;;;;6370631;22;45766;-75
2023/05/25 09:05:40;;;;;;;;;5.00;4.00;;;;;;;;6371695;22;45214;-75
2023/05/25 09:08:06;;;;;;;;;6.00;3.67;;;;;;;;6371701;22;45273;-75
2023/05/25 09:10:35;;;;;;;;;4.00;3.33;;;;;;;;6370752;22;45238;-73
2023/05/25 09:13:01;;;;;;;;;6.33;2.67;;;;;;;;6372105;22;45430;-75
2023/05/25 09:15:26;;;;;;;;;5.33;4.67;;;;;;;;6371952;22;45236;-76
2023/05/25 09:17:51;;;;;;;;;5.00;5.00;;;;;;;;6373891;22;45395;-73
2023/05/25 09:20:17;;;;;;;;;4.00;4.00;;;;;;;;6373294;22;45171;-73
2023/05/25 09:22:42;;;;;;;;;4.00;4.00;;;;;;;;6373097;22;45978;-75
2023/05/25 09:25:09;;;;;;;;;5.00;5.00;;;;;;;;6374164;22;45222;-74
2023/05/25 09:27:36;;;;;;;;;5.00;4.00;;;;;;;;6373113;22;45199;-73
2023/05/25 09:30:02;;;;;;;;;7.75;6.00;;;;;;;;6370045;22;44965;-74
2023/05/25 09:32:27;;;;;;;;;4.00;4.00;;;;;;;;6341916;22;45202;-72
2023/05/25 09:34:54;;;;;;;;;5.00;5.00;;;;;;;;6370956;22;45288;-72
2023/05/25 09:37:20;;;;;;;;;6.00;5.25;;;;;;;;6372228;22;45299;-71
2023/05/25 09:39:46;;;;;;;;;5.50;3.50;;;;;;;;6371362;22;45251;-72
2023/05/25 09:42:11;;;;;;;;;4.50;4.50;;;;;;;;6371802;22;46128;-71
2023/05/25 09:44:37;;;;;;;;;5.75;3.25;;;;;;;;6371471;22;45268;-72
2023/05/25 09:47:03;;;;;;;;;4.50;4.50;;;;;;;;6372149;22;45227;-72
2023/05/25 09:49:28;;;;;;;;;4.25;4.25;;;;;;;;6369647;22;45116;-72
2023/05/25 09:51:53;;;;;;;;;6.25;6.00;;;;;;;;6371074;22;45375;-72
2023/05/25 09:54:21;;;;;;;;;4.50;4.00;;;;;;;;6371480;22;45180;-72
2023/05/25 09:56:47;;;;;;;;;5.00;3.00;;;;;;;;6371674;22;45323;-73
2023/05/25 09:59:12;;;;;;;;;3.50;3.50;;;;;;;;6370979;22;45289;-73
2023/05/25 10:01:39;;;;;;;;;4.75;3.00;;;;;;;;6371786;22;46204;-73
2023/05/25 10:04:04;;;;;;;;;6.00;5.00;;;;;;;;6371635;22;45343;-72
2023/05/25 10:06:30;;;;;;;;;3.50;3.50;;;;;;;;6375037;22;45360;-72
2023/05/25 10:08:56;;;;;;;;;6.75;5.50;;;;;;;;6374721;22;45203;-73
2023/05/25 10:11:22;;;;;;;;;5.25;4.00;;;;;;;;6372804;22;45321;-73
2023/05/25 10:13:49;;;;;;;;;5.50;4.00;;;;;;;;6372942;22;45310;-73
2023/05/25 10:16:18;;;;;;;;;5.00;5.00;;;;;;;;6372685;22;45168;-72
2023/05/25 10:18:47;;;;;;;;;5.25;5.25;;;;;;;;6373129;22;45276;-73
2023/05/25 10:21:14;;;;;;;;;7.25;6.75;;;;;;;;6370319;22;46136;-72
2023/05/25 10:23:44;;;;;;;;;4.75;4.75;;;;;;;;6373130;22;45211;-73
2023/05/25 10:26:11;;;;;;;;;6.50;5.25;;;;;;;;6373015;22;45326;-73
2023/05/25 10:28:38;;;;;;;;;7.25;7.00;;;;;;;;6373182;22;45449;-72
2023/05/25 10:31:04;;;;;;;;;9.75;9.75;;;;;;;;6372521;22;46044;-73
2023/05/25 10:33:30;;;;;;;;;7.25;7.25;;;;;;;;6372584;22;45080;-73
2023/05/25 10:35:56;;;;;;;;;6.00;3.00;;;;;;;;6372245;22;45335;-71
2023/05/25 10:38:21;;;;;;;;;8.00;6.50;;;;;;;;6372921;22;45205;-70
2023/05/25 10:40:49;;;;;;;;;4.00;4.00;;;;;;;;6370471;22;45147;-71
2023/05/25 10:43:15;;;;;;;;;8.75;6.00;;;;;;;;6372689;22;45282;-71
2023/05/25 10:45:41;;;;;;;;;6.00;4.00;;;;;;;;6372963;22;45215;-73
2023/05/25 10:48:06;;;;;;;;;5.00;5.00;;;;;;;;6373533;22;45265;-71
2023/05/25 10:50:34;;;;;;;;;16.00;14.50;;;;;;;;6373021;22;45214;-72
2023/05/25 10:53:06;;;;;;;;;8.25;6.50;;;;;;;;6373180;22;45092;-71
2023/05/25 10:55:42;;;;;;;;;15.00;9.75;;;;;;;;6343953;22;45291;-71
2023/05/25 10:58:08;;;;;;;;;5.25;4.50;;;;;;;;6372918;22;45440;-72
2023/05/25 11:00:33;;;;;;;;;12.50;9.75;;;;;;;;6371763;22;46977;-73
2023/05/25 11:02:59;;;;;;;;;3.50;3.00;;;;;;;;6343950;22;45223;-73
2023/05/25 11:05:30;;;;;;;;;5.50;4.25;;;;;;;;6372380;22;45211;-73
2023/05/25 11:07:56;;;;;;;;;6.25;4.50;;;;;;;;6372382;22;45338;-73
2023/05/25 11:10:40;;;;;;;;;5.00;4.25;;;;;;;;6372169;22;46943;-73
2023/05/25 11:13:24;;;;;;;;;4.80;4.80;;;;;;;;6372940;22;45218;-72
2023/05/25 11:16:08;;;;;;;;;7.00;4.75;;;;;;;;6372356;22;45314;-72
2023/05/25 11:18:36;;;;;;;;;4.50;4.50;;;;;;;;6371190;22;45255;-73
2023/05/25 11:21:17;;;;;;;;;6.00;6.00;;;;;;;;6371921;22;46064;-73
2023/05/25 11:24:02;;;;;;;;;7.40;5.80;;;;;;;;6372510;22;45181;-73
2023/05/25 11:26:29;;;;;;;;;3.80;3.80;;;;;;;;6372725;22;45320;-73
2023/05/25 11:28:55;;;;;;;;;4.80;4.00;;;;;;;;6372439;22;45393;-70
2023/05/25 11:31:31;;;;;;;;;5.75;4.50;;;;;;;;6344907;22;46752;-74
2023/05/25 11:33:57;;;;;;;;;6.60;5.00;;;;;;;;6374041;22;45281;-74
2023/05/25 11:36:22;;;;;;;;;6.00;6.00;;;;;;;;6373352;22;45319;-72
2023/05/25 11:38:48;;;;;;;;;5.50;5.50;;;;;;;;6372432;22;45249;-75
2023/05/25 11:41:23;;;;;;;;;5.00;4.75;;;;;;;;6371990;22;45860;-74
2023/05/25 11:43:48;;;;;;;;;4.80;4.80;;;;;;;;6372831;22;45246;-75
2023/05/25 11:46:14;;;;;;;;;6.00;6.00;;;;;;;;6371322;22;45245;-74
2023/05/25 11:48:44;;;;;;;;;5.25;5.25;;;;;;;;6372781;22;45166;-75
2023/05/25 11:51:09;;;;;;;;;6.20;4.00;;;;;;;;6370951;22;46543;-74
2023/05/25 11:53:40;;;;;;;;;5.75;4.25;;;;;;;;6372878;22;45277;-75
2023/05/25 11:56:05;;;;;;;;;5.20;4.00;;;;;;;;6372600;22;45570;-76
2023/05/25 11:58:33;;;;;;;;;5.50;5.50;;;;;;;;6372710;22;45182;-69
2023/05/25 12:01:12;;;;;;;;;9.60;4.80;;;;;;;;6371680;22;46092;-76
2023/05/25 12:03:37;;;;;;;;;4.00;4.00;;;;;;;;6373398;22;45422;-76
2023/05/25 12:06:03;;;;;;;;;4.75;4.00;;;;;;;;6373208;22;45272;-76
2023/05/25 12:08:32;;;;;;;;;7.50;4.75;;;;;;;;6374664;22;45275;-77
2023/05/25 12:10:57;;;;;;;;;5.00;3.40;;;;;;;;6375946;22;45210;-76
2023/05/25 12:13:22;;;;;;;;;5.25;5.25;;;;;;;;6374724;22;45072;-71
2023/05/25 12:15:48;;;;;;;;;5.75;4.25;;;;;;;;6372839;22;45243;-72
2023/05/25 12:18:13;;;;;;;;;6.00;3.75;;;;;;;;6345272;22;45354;-72
2023/05/25 12:20:40;;;;;;;;;4.75;4.75;;;;;;;;6372748;22;45297;-73
2023/05/25 12:23:05;;;;;;;;;5.00;3.80;;;;;;;;6370753;22;45262;-75
2023/05/25 12:25:30;;;;;;;;;6.00;4.00;;;;;;;;6370661;22;45291;-75
2023/05/25 12:28:08;;;;;;;;;4.75;4.00;;;;;;;;6372468;22;45491;-75
2023/05/25 12:30:33;;;;;;;;;3.80;2.40;;;;;;;;6371232;22;46122;-75
2023/05/25 12:33:02;;;;;;;;;4.00;4.00;;;;;;;;6369685;22;45211;-76
2023/05/25 12:35:28;;;;;;;;;5.00;4.25;;;;;;;;6371496;22;45265;-76
2023/05/25 12:38:12;;;;;;;;;5.75;5.00;;;;;;;;6371845;22;45503;-76
2023/05/25 12:40:37;;;;;;;;;3.00;2.40;;;;;;;;6372001;22;45329;-76
2023/05/25 12:43:02;;;;;;;;;5.00;4.25;;;;;;;;6372760;22;45230;-76
2023/05/25 12:45:28;;;;;;;;;5.50;5.50;;;;;;;;6372463;22;45218;-75
2023/05/25 12:47:53;;;;;;;;;3.75;1.25;;;;;;;;6371941;22;45849;-77
2023/05/25 12:50:18;;;;;;;;;5.50;5.50;;;;;;;;6369604;22;45226;-76
2023/05/25 12:52:45;;;;;;;;;5.50;3.75;;;;;;;;6372585;22;45203;-75
2023/05/25 12:55:26;;;;;;;;;6.00;4.80;;;;;;;;6372178;22;45723;-76
2023/05/25 12:57:52;;;;;;;;;2.50;2.50;;;;;;;;6372351;22;45033;-76
2023/05/25 13:00:22;;;;;;;;;5.20;4.00;;;;;;;;6373685;22;46100;-75
2023/05/25 13:02:47;;;;;;;;;3.20;3.20;;;;;;;;6374451;22;45210;-76
2023/05/25 13:05:18;;;;;;;;;4.00;4.00;;;;;;;;6371781;22;45373;-76
2023/05/25 13:07:43;;;;;;;;;3.80;3.80;;;;;;;;6372515;22;45396;-76
2023/05/25 13:10:09;;;;;;;;;5.00;3.75;;;;;;;;6372083;22;45328;-76
2023/05/25 13:12:34;;;;;;;;;5.00;5.00;;;;;;;;6343319;22;45190;-76
2023/05/25 13:14:59;;;;;;;;;5.25;4.00;;;;;;;;6372365;22;45378;-77
2023/05/25 13:17:25;;;;;;;;;7.50;5.00;;;;;;;;6371627;22;45384;-75
2023/05/25 13:19:50;;;;;;;;;7.50;6.25;;;;;;;;6370985;22;47428;-75
2023/05/25 13:22:15;;;;;;;;;5.75;5.25;;;;;;;;6371460;22;45280;-76
2023/05/25 13:24:40;;;;;;;;;8.50;5.50;;;;;;;;6372509;22;45195;-75
2023/05/25 13:27:06;;;;;;;;;5.50;5.50;;;;;;;;6372237;22;45273;-76
2023/05/25 13:29:31;;;;;;;;;8.50;5.75;;;;;;;;6371933;22;46568;-76
2023/05/25 13:31:56;;;;;;;;;7.50;7.00;;;;;;;;6372073;22;45351;-76
2023/05/25 13:34:21;;;;;;;;;10.00;7.25;;;;;;;;6371866;22;45333;-76
2023/05/25 13:36:47;;;;;;;;;6.00;6.00;;;;;;;;6372479;22;45479;-76
2023/05/25 13:39:13;;;;;;;;;0.00;0.00;;;;;;;;6372774;22;45348;-76
2023/05/25 13:41:39;;;;;;;;;6.80;5.20;;;;;;;;6344423;22;45277;-76
2023/05/25 13:44:04;;;;;;;;;8.25;7.00;;;;;;;;6375439;22;45550;-76
2023/05/25 13:46:29;;;;;;;;;7.25;7.25;;;;;;;;6376935;22;45497;-75
2023/05/25 13:48:55;;;;;;;;;8.00;6.25;;;;;;;;6373972;22;45378;-76
2023/05/25 13:51:21;;;;;;;;;8.00;6.25;;;;;;;;6372707;22;45158;-76
2023/05/25 13:53:47;;;;;;;;;7.50;6.00;;;;;;;;6373313;22;45168;-77
2023/05/25 13:56:12;;;;;;;;;5.60;5.20;;;;;;;;6372620;22;45246;-77
2023/05/25 13:58:38;;;;;;;;;6.50;6.50;;;;;;;;6373340;22;46190;-75
2023/05/25 14:01:04;;;;;;;;;8.00;5.75;;;;;;;;6373180;22;45133;-75
2023/05/25 14:03:29;;;;;;;;;8.00;7.00;;;;;;;;6373034;22;45224;-76
2023/05/25 14:05:54;;;;;;;;;7.00;7.00;;;;;;;;6344268;22;45802;-75
2023/05/25 14:08:19;;;;;;;;;8.00;6.00;;;;;;;;6373447;22;45233;-76
2023/05/25 14:10:45;;;;;;;;;6.50;5.00;;;;;;;;6373166;22;45367;-76
2023/05/25 14:13:10;;;;;;;;;5.25;5.25;;;;;;;;6373578;22;45215;-76
2023/05/25 14:15:35;;;;;;;;;5.75;5.75;;;;;;;;6344456;22;45516;-76
2023/05/25 14:18:00;;;;;;;;;5.00;5.00;;;;;;;;6373586;22;45450;-76
2023/05/25 14:20:26;;;;;;;;;7.00;6.00;;;;;;;;6372977;22;45191;-76
2023/05/25 14:22:51;;;;;;;;;7.00;6.00;;;;;;;;6377389;22;45265;-76
2023/05/25 14:25:16;;;;;;;;;7.25;6.25;;;;;;;;6376576;22;45650;-76
2023/05/25 14:27:42;;;;;;;;;7.00;6.50;;;;;;;;6377236;22;45377;-77
2023/05/25 14:30:07;;;;;;;;;7.50;7.50;;;;;;;;6378329;22;45276;-77
2023/05/25 14:32:32;;;;;;;;;6.50;6.25;;;;;;;;6375250;22;45204;-75
2023/05/25 14:34:58;;;;;;;;;8.75;7.00;;;;;;;;6373017;22;45280;-76
2023/05/25 14:37:23;;;;;;;;;7.75;7.00;;;;;;;;6343682;22;45405;-76
2023/05/25 14:39:48;;;;;;;;;6.50;6.50;;;;;;;;6372932;22;45219;-76
2023/05/25 14:42:14;;;;;;;;;8.00;7.50;;;;;;;;6373233;22;45297;-78
2023/05/25 14:44:39;;;;;;;;;7.20;6.60;;;;;;;;6373014;22;45187;-75
2023/05/25 14:47:05;;;;;;;;;7.00;7.00;;;;;;;;6372932;22;45874;-75
2023/05/25 14:49:30;;;;;;;;;9.00;7.25;;;;;;;;6343320;22;45250;-74
2023/05/25 14:51:55;;;;;;;;;9.00;5.50;;;;;;;;6372231;22;45423;-71
2023/05/25 14:54:20;;;;;;;;;9.50;7.00;;;;;;;;6371519;22;46139;-72
2023/05/25 14:56:46;;;;;;;;;6.75;6.50;;;;;;;;6372500;22;45217;-71
2023/05/25 14:59:11;;;;;;;;;8.00;6.25;;;;;;;;6371764;22;45170;-72
2023/05/25 15:01:36;;;;;;;;;9.25;7.00;;;;;;;;6372720;22;45281;-72
2023/05/25 15:04:02;;;;;;;;;8.75;6.50;;;;;;;;6372599;22;45453;-72
2023/05/25 15:06:27;;;;;;;;;8.50;7.00;;;;;;;;6372424;22;45203;-72
2023/05/25 15:08:52;;;;;;;;;6.75;6.75;;;;;;;;6373410;22;45175;-73
2023/05/25 15:11:18;;;;;;;;;8.75;7.25;;;;;;;;6346222;22;45175;-72
2023/05/25 15:13:43;;;;;;;;;7.50;5.00;;;;;;;;6375200;22;45156;-74
2023/05/25 15:16:11;;;;;;;;;9.75;8.50;;;;;;;;6373396;22;46036;-73
2023/05/25 15:18:37;;;;;;;;;8.20;7.40;;;;;;;;6372635;22;45230;-73
2023/05/25 15:21:02;;;;;;;;;11.50;10.00;;;;;;;;6366227;22;45282;-72
2023/05/25 15:23:27;;;;;;;;;7.75;7.75;;;;;;;;6339476;22;45548;-73
2023/05/25 15:25:52;;;;;;;;;7.75;7.75;;;;;;;;6371137;22;45270;-74
2023/05/25 15:28:18;;;;;;;;;8.25;6.50;;;;;;;;6371403;22;45309;-74
2023/05/25 15:30:43;;;;;;;;;4.00;3.50;;;;;;;;6371443;22;45227;-73
2023/05/25 15:33:08;;;;;;;;;6.75;6.75;;;;;;;;6342986;22;45952;-74
2023/05/25 15:35:33;;;;;;;;;7.50;7.50;;;;;;;;6371458;22;45251;-74
2023/05/25 15:37:59;;;;;;;;;9.50;7.00;;;;;;;;6370608;22;45436;-74
2023/05/25 15:40:25;;;;;;;;;6.00;6.00;;;;;;;;6370109;22;45241;-73
2023/05/25 15:42:50;;;;;;;;;7.00;7.00;;;;;;;;6343649;22;46779;-73
2023/05/25 15:45:15;;;;;;;;;9.25;8.00;;;;;;;;6371837;22;45140;-74
2023/05/25 15:47:40;;;;;;;;;11.00;9.75;;;;;;;;6372170;22;45293;-74
2023/05/25 15:50:06;;;;;;;;;10.00;8.75;;;;;;;;6371977;22;45332;-74
2023/05/25 15:52:31;;;;;;;;;13.25;9.25;;;;;;;;6374033;22;45463;-74
2023/05/25 15:54:57;;;;;;;;;10.00;8.75;;;;;;;;6373540;22;46614;-74
2023/05/25 15:57:22;;;;;;;;;9.00;9.00;;;;;;;;6374086;22;45205;-73
2023/05/25 15:59:47;;;;;;;;;10.50;10.25;;;;;;;;6372903;22;45196;-74
2023/05/25 16:02:12;;;;;;;;;11.50;10.75;;;;;;;;6372051;22;45563;-73
2023/05/25 16:04:38;;;;;;;;;10.50;9.00;;;;;;;;6371313;22;45799;-72
2023/05/25 16:07:03;;;;;;;;;13.00;10.25;;;;;;;;6371785;22;45253;-75
2023/05/25 16:09:29;;;;;;;;;15.00;12.00;;;;;;;;6371858;22;45180;-74
2023/05/25 16:11:54;;;;;;;;;13.00;12.00;;;;;;;;6371920;22;45356;-71
2023/05/25 16:14:19;;;;;;;;;11.25;10.50;;;;;;;;6371780;22;45857;-71
2023/05/25 16:16:45;;;;;;;;;14.50;12.50;;;;;;;;6371956;22;45242;-74
2023/05/25 16:19:10;;;;;;;;;13.00;11.00;;;;;;;;6371868;22;45396;-74
2023/05/25 16:21:36;;;;;;;;;12.25;12.00;;;;;;;;6371731;22;45356;-72
2023/05/25 16:24:01;;;;;;;;;12.75;12.50;;;;;;;;6370632;22;46254;-71
2023/05/25 16:26:27;;;;;;;;;16.25;14.25;;;;;;;;6371959;22;45231;-71
2023/05/25 16:28:52;;;;;;;;;11.25;11.25;;;;;;;;6372452;22;45288;-71
2023/05/25 16:31:17;;;;;;;;;14.00;12.25;;;;;;;;6371926;22;45285;-71
2023/05/25 16:33:43;;;;;;;;;14.50;14.50;;;;;;;;6371919;22;45387;-71
2023/05/25 16:36:08;;;;;;;;;9.25;9.00;;;;;;;;6372130;22;45277;-71
2023/05/25 16:38:33;;;;;;;;;13.25;13.25;;;;;;;;6372997;22;45261;-72
2023/05/25 16:40:58;;;;;;;;;16.50;12.25;;;;;;;;6372230;22;45394;-71
2023/05/25 16:43:25;;;;;;;;;11.25;11.00;;;;;;;;6372968;22;45432;-72
2023/05/25 16:45:50;;;;;;;;;15.25;14.00;;;;;;;;6370982;22;45223;-72
2023/05/25 16:48:16;;;;;;;;;16.00;15.00;;;;;;;;6372382;22;45384;-72
2023/05/25 16:50:41;;;;;;;;;13.75;12.50;;;;;;;;6370792;22;45257;-71
2023/05/25 16:53:06;;;;;;;;;17.75;12.00;;;;;;;;6372236;22;46383;-72
2023/05/25 16:55:32;;;;;;;;;15.25;13.00;;;;;;;;6371643;22;45139;-72
2023/05/25 16:57:57;;;;;;;;;15.00;12.33;;;;;;;;6371956;22;45154;-73
2023/05/25 17:00:22;;;;;;;;;15.00;14.33;;;;;;;;6343179;22;45274;-72
2023/05/25 17:02:48;;;;;;;;;13.67;13.67;;;;;;;;6343410;22;46091;-73
2023/05/25 17:05:13;;;;;;;;;16.67;15.00;;;;;;;;6371474;22;45218;-72
2023/05/25 17:07:39;;;;;;;;;17.00;15.00;;;;;;;;6372273;22;45455;-71
2023/05/25 17:10:05;;;;;;;;;16.00;15.00;;;;;;;;6371614;22;45218;-72
2023/05/25 17:12:30;;;;;;;;;14.67;14.33;;;;;;;;6370389;22;45208;-72
2023/05/25 17:14:56;;;;;;;;;16.67;16.67;;;;;;;;6343298;22;45287;-72
2023/05/25 17:17:21;;;;;;;;;17.33;16.00;;;;;;;;6372331;22;45278;-72
2023/05/25 17:19:46;;;;;;;;;16.67;15.00;;;;;;;;6371216;22;45301;-72
2023/05/25 17:22:11;;;;;;;;;17.33;14.33;;;;;;;;6371717;22;46274;-71
2023/05/25 17:24:36;;;;;;;;;23.33;18.67;;;;;;;;6372870;22;45348;-71
2023/05/25 17:27:02;;;;;;;;;18.00;15.67;;;;;;;;6372718;22;45303;-74
2023/05/25 17:29:27;;;;;;;;;21.33;18.67;;;;;;;;6371504;22;45192;-72
2023/05/25 17:31:52;;;;;;;;;21.33;19.00;;;;;;;;6371951;22;45461;-72
2023/05/25 17:34:18;;;;;;;;;21.67;18.33;;;;;;;;6342587;22;45228;-72
2023/05/25 17:36:43;;;;;;;;;20.00;18.00;;;;;;;;6371827;22;45315;-73
2023/05/25 17:39:08;;;;;;;;;20.00;17.33;;;;;;;;6371392;22;45491;-72
2023/05/25 17:41:34;;;;;;;;;17.67;15.67;;;;;;;;6371353;22;45549;-72
2023/05/25 17:44:00;;;;;;;;;18.00;16.00;;;;;;;;6371419;22;45302;-72
2023/05/25 17:46:25;;;;;;;;;21.33;18.67;;;;;;;;6371860;22;45144;-72
2023/05/25 17:48:51;;;;;;;;;18.33;17.00;;;;;;;;6371526;22;45253;-72
2023/05/25 17:51:17;;;;;;;;;22.00;20.00;;;;;;;;6370565;22;45213;-72
2023/05/25 17:53:42;;;;;;;;;17.33;15.67;;;;;;;;6369591;22;45180;-73
2023/05/25 17:56:07;;;;;;;;;20.00;19.50;;;;;;;;6371306;22;45199;-73
2023/05/25 17:58:32;;;;;;;;;20.00;20.00;;;;;;;;6371806;22;45149;-73
2023/05/25 18:00:58;;;;;;;;;19.00;19.00;;;;;;;;6372872;22;45203;-72
2023/05/25 18:03:24;;;;;;;;;22.67;21.67;;;;;;;;6345396;22;46017;-72
2023/05/25 18:05:49;;;;;;;;;20.33;19.33;;;;;;;;6374192;22;45277;-72
2023/05/25 18:08:15;;;;;;;;;22.67;21.00;;;;;;;;6343203;22;45272;-71
2023/05/25 18:10:40;;;;;;;;;24.33;21.67;;;;;;;;6371191;22;45278;-73
2023/05/25 18:13:05;;;;;;;;;20.33;19.00;;;;;;;;6371646;22;45349;-72
2023/05/25 18:15:30;;;;;;;;;18.67;17.33;;;;;;;;6371417;22;45285;-72
2023/05/25 18:17:56;;;;;;;;;22.67;18.00;;;;;;;;6371152;22;45431;-72
2023/05/25 18:20:21;;;;;;;;;22.00;19.00;;;;;;;;6368799;22;45390;-72
2023/05/25 18:22:46;;;;;;;;;20.00;20.00;;;;;;;;6371649;22;45223;-72
2023/05/25 18:25:11;;;;;;;;;19.00;18.00;;;;;;;;6371875;22;45269;-72
2023/05/25 18:27:36;;;;;;;;;17.00;17.00;;;;;;;;6371968;22;45458;-73
2023/05/25 18:30:02;;;;;;;;;15.00;14.33;;;;;;;;6372470;22;45442;-72
2023/05/25 18:32:27;;;;;;;;;18.67;17.00;;;;;;;;6372677;22;45219;-73
2023/05/25 18:34:52;;;;;;;;;17.67;16.33;;;;;;;;6372800;22;45237;-72
2023/05/25 18:37:17;;;;;;;;;12.33;12.33;;;;;;;;6373199;22;45300;-72
2023/05/25 18:39:42;;;;;;;;;16.00;13.33;;;;;;;;6372762;22;45254;-73
2023/05/25 18:42:08;;;;;;;;;18.67;17.67;;;;;;;;6373015;22;45273;-72
2023/05/25 18:44:35;;;;;;;;;15.00;14.00;;;;;;;;6373089;22;45373;-72
2023/05/25 18:47:00;;;;;;;;;15.33;13.67;;;;;;;;6372382;22;45432;-72
2023/05/25 18:49:31;;;;;;;;;13.33;11.67;;;;;;;;6372817;22;45327;-72
2023/05/25 18:51:56;;;;;;;;;13.67;12.67;;;;;;;;6373090;22;45192;-71
2023/05/25 18:54:21;;;;;;;;;15.00;12.00;;;;;;;;6373789;22;45281;-72
2023/05/25 18:56:46;;;;;;;;;15.00;14.00;;;;;;;;6373691;22;45290;-71
2023/05/25 18:59:12;;;;;;;;;15.00;12.33;;;;;;;;6373178;22;46102;-72
2023/05/25 19:01:38;;;;;;;;;14.67;11.67;;;;;;;;6373243;22;45185;-72
2023/05/25 19:04:03;;;;;;;;;10.00;10.00;;;;;;;;6318465;22;45411;-72
2023/05/25 19:06:28;;;;;;;;;12.00;12.00;;;;;;;;6372307;22;45261;-72
2023/05/25 19:08:54;;;;;;;;;10.00;10.00;;;;;;;;6372847;22;45357;-72
2023/05/25 19:11:19;;;;;;;;;9.00;9.00;;;;;;;;6371494;22;45420;-72
2023/05/25 19:13:45;;;;;;;;;12.00;11.67;;;;;;;;6373033;22;45387;-72
2023/05/25 19:16:10;;;;;;;;;12.00;12.00;;;;;;;;6371728;22;45349;-72
2023/05/25 19:18:35;;;;;;;;;13.67;13.67;;;;;;;;6372535;22;45180;-72
2023/05/25 19:21:01;;;;;;;;;12.67;10.00;;;;;;;;6372289;22;45213;-73
2023/05/25 19:23:26;;;;;;;;;12.33;12.33;;;;;;;;6372848;22;45242;-72
2023/05/25 19:25:51;;;;;;;;;13.33;11.00;;;;;;;;6372352;22;45236;-72
2023/05/25 19:28:16;;;;;;;;;12.00;12.00;;;;;;;;6372374;22;46004;-72
2023/05/25 19:30:42;;;;;;;;;11.67;11.00;;;;;;;;6372967;22;45226;-73
2023/05/25 19:33:07;;;;;;;;;11.33;10.00;;;;;;;;6373051;22;45345;-73
2023/05/25 19:35:32;;;;;;;;;10.00;10.00;;;;;;;;6371991;22;45232;-72
2023/05/25 19:37:57;;;;;;;;;12.00;12.00;;;;;;;;6372419;22;45586;-73
2023/05/25 19:40:23;;;;;;;;;6.67;6.00;;;;;;;;6372001;22;45217;-72
2023/05/25 19:42:48;;;;;;;;;10.00;8.67;;;;;;;;6372621;22;45122;-72
2023/05/25 19:45:13;;;;;;;;;7.00;7.00;;;;;;;;6372372;22;45292;-72
2023/05/25 19:47:38;;;;;;;;;8.33;8.33;;;;;;;;6372615;22;45130;-73
2023/05/25 19:50:04;;;;;;;;;12.00;9.00;;;;;;;;6371808;22;45099;-73
2023/05/25 19:52:29;;;;;;;;;11.33;8.33;;;;;;;;6371415;22;45084;-73
2023/05/25 19:54:54;;;;;;;;;8.00;7.00;;;;;;;;6372738;22;45662;-73
2023/05/25 19:57:20;;;;;;;;;9.67;8.67;;;;;;;;6372381;22;45288;-73
2023/05/25 19:59:45;;;;;;;;;11.67;10.33;;;;;;;;6370974;22;45211;-73
2023/05/25 20:02:11;;;;;;;;;9.33;9.33;;;;;;;;6372294;22;45265;-73
2023/05/25 20:04:38;;;;;;;;;13.33;9.67;;;;;;;;6371812;22;45164;-73
2023/05/25 20:07:03;;;;;;;;;9.00;9.00;;;;;;;;6372447;22;46062;-72
2023/05/25 20:09:29;;;;;;;;;8.67;8.67;;;;;;;;6367615;22;45156;-72
2023/05/25 20:11:55;;;;;;;;;10.33;8.67;;;;;;;;6372526;22;45380;-72
2023/05/25 20:14:20;;;;;;;;;9.33;9.33;;;;;;;;6343154;22;45252;-73
2023/05/25 20:16:46;;;;;;;;;9.00;7.67;;;;;;;;6372196;22;45240;-72
2023/05/25 20:19:11;;;;;;;;;10.00;8.33;;;;;;;;6343749;22;45183;-72
2023/05/25 20:21:36;;;;;;;;;8.67;8.67;;;;;;;;6372822;22;45143;-72
2023/05/25 20:24:02;;;;;;;;;9.67;8.00;;;;;;;;6372556;22;45485;-74
2023/05/25 20:26:27;;;;;;;;;9.00;8.00;;;;;;;;6371676;22;45523;-72
2023/05/25 20:28:52;;;;;;;;;7.67;6.33;;;;;;;;6372759;22;45162;-73
2023/05/25 20:31:17;;;;;;;;;9.00;8.00;;;;;;;;6372305;22;45185;-72
2023/05/25 20:33:43;;;;;;;;;8.00;8.00;;;;;;;;6372241;22;45080;-72
2023/05/25 20:36:08;;;;;;;;;8.00;8.00;;;;;;;;6371235;22;46861;-73
2023/05/25 20:38:33;;;;;;;;;14.67;9.67;;;;;;;;6371780;22;45214;-72
2023/05/25 20:40:58;;;;;;;;;8.00;7.00;;;;;;;;6372225;22;45222;-72
2023/05/25 20:43:24;;;;;;;;;9.00;8.00;;;;;;;;6371663;22;45385;-73
2023/05/25 20:45:49;;;;;;;;;10.33;9.33;;;;;;;;6371851;22;45397;-72
2023/05/25 20:48:14;;;;;;;;;11.67;10.00;;;;;;;;6372314;22;45448;-71
2023/05/25 20:50:39;;;;;;;;;10.67;10.00;;;;;;;;6370414;22;45232;-72
2023/05/25 20:53:05;;;;;;;;;8.33;8.33;;;;;;;;6371833;22;45511;-72
2023/05/25 20:55:30;;;;;;;;;9.00;9.00;;;;;;;;6371233;22;46235;-71
2023/05/25 20:57:55;;;;;;;;;12.67;10.67;;;;;;;;6370979;22;45306;-71
2023/05/25 21:00:22;;;;;;;;;10.33;10.33;;;;;;;;6370887;22;45303;-71
2023/05/25 21:02:47;;;;;;;;;8.67;8.00;;;;;;;;6371032;22;45501;-72
2023/05/25 21:05:12;;;;;;;;;8.00;7.33;;;;;;;;6370267;22;46278;-72
2023/05/25 21:07:38;;;;;;;;;10.00;10.00;;;;;;;;6371308;22;45262;-71
